Time;durP1;ratioP1;P1;durP2;ratioP2;P2;SDS_P1;SDS_P2;PMS_P1;PMS_P2;Temp;Humidity;BMP_temperature;BMP_pressure;BME280_temperature;BME280_humidity;BME280_pressure;Samples;Min_cycle;Max_cycle;Signal;HPM_P1;HPM_P2
2023/08/20 00:00:27;;;;;;;25.50;23.20;;;26.60;99.90;;;;;;4833112;29;20607;-80
2023/08/20 00:03:10;;;;;;;24.47;22.27;;;26.60;99.90;;;;;;4818959;29;20426;-85
2023/08/20 00:05:36;;;;;;;25.10;22.80;;;26.60;99.90;;;;;;4819242;29;20514;-80
2023/08/20 00:08:02;;;;;;;26.43;23.80;;;26.60;99.90;;;;;;4832912;29;20436;-85
2023/08/20 00:10:28;;;;;;;24.80;22.60;;;26.60;99.90;;;;;;4817743;29;20457;-79
2023/08/20 00:12:54;;;;;;;25.43;22.77;;;26.60;99.90;;;;;;4817234;29;20433;-80
2023/08/20 00:15:19;;;;;;;27.13;23.30;;;26.60;99.90;;;;;;4818824;29;20364;-85
2023/08/20 00:17:46;;;;;;;27.57;24.57;;;26.60;99.90;;;;;;4818799;29;20236;-80
2023/08/20 00:20:14;;;;;;;26.07;23.57;;;26.60;99.90;;;;;;4819074;29;20230;-80
2023/08/20 00:22:42;;;;;;;25.00;22.80;;;26.60;99.90;;;;;;4818961;29;20450;-85
2023/08/20 00:25:08;;;;;;;26.03;23.40;;;26.60;99.90;;;;;;4832908;29;20544;-84
2023/08/20 00:27:34;;;;;;;25.80;23.50;;;26.50;99.90;;;;;;4818814;29;20810;-84
2023/08/20 00:30:00;;;;;;;26.83;24.33;;;26.50;99.90;;;;;;4817373;29;20453;-84
2023/08/20 00:32:25;;;;;;;27.10;24.37;;;26.50;99.90;;;;;;4818458;29;20185;-79
2023/08/20 00:34:51;;;;;;;26.13;23.63;;;26.50;99.90;;;;;;4832564;29;20214;-85
2023/08/20 00:37:17;;;;;;;26.10;23.70;;;26.50;99.90;;;;;;4818651;29;20476;-85
2023/08/20 00:39:43;;;;;;;25.60;23.30;;;26.40;99.90;;;;;;4817085;29;20372;-79
2023/08/20 00:42:09;;;;;;;27.77;25.13;;;26.40;99.90;;;;;;4818442;29;20178;-79
2023/08/20 00:44:35;;;;;;;24.77;22.37;;;26.40;99.90;;;;;;4818366;29;20423;-85
2023/08/20 00:47:02;;;;;;;26.90;24.43;;;26.40;99.90;;;;;;4817328;29;20197;-84
2023/08/20 00:49:29;;;;;;;25.57;23.20;;;26.40;99.90;;;;;;4818185;29;20927;-84
2023/08/20 00:51:55;;;;;;;27.53;24.40;;;26.40;99.90;;;;;;4818675;29;20488;-79
2023/08/20 00:54:22;;;;;;;27.90;25.10;;;26.40;99.90;;;;;;4818140;29;20548;-84
2023/08/20 00:56:49;;;;;;;25.57;22.97;;;26.40;99.90;;;;;;4818256;29;20482;-80
2023/08/20 00:59:16;;;;;;;27.60;24.90;;;26.40;99.90;;;;;;4831209;29;20442;-79
2023/08/20 01:01:41;;;;;;;26.57;24.07;;;26.40;99.90;;;;;;4832037;29;20442;-84
2023/08/20 01:04:07;;;;;;;26.90;24.23;;;26.40;99.90;;;;;;4818142;29;20424;-79
2023/08/20 01:07:14;;;;;;;24.90;22.50;;;26.30;99.90;;;;;;4818333;29;20202;-85
2023/08/20 01:09:58;;;;;;;26.20;23.70;;;26.30;99.90;;;;;;4832072;29;20979;-84
2023/08/20 01:12:25;;;;;;;26.90;24.30;;;26.30;99.90;;;;;;4831790;29;20488;-79
2023/08/20 01:14:51;;;;;;;27.43;24.80;;;26.30;99.90;;;;;;4817777;29;20445;-85
2023/08/20 01:17:17;;;;;;;27.60;24.70;;;26.30;99.90;;;;;;4818152;29;20485;-84
2023/08/20 01:19:43;;;;;;;25.47;23.00;;;26.20;99.90;;;;;;4816369;29;20217;-80
2023/08/20 01:22:43;;;;;;;25.43;23.23;;;26.20;99.90;;;;;;4831890;29;20216;-80
2023/08/20 01:25:43;;;;;;;26.90;24.07;;;26.20;99.90;;;;;;4816992;29;20509;-85
2023/08/20 01:28:27;;;;;;;27.00;24.30;;;26.20;99.90;;;;;;4818005;29;20753;-84
2023/08/20 01:30:56;;;;;;;28.97;26.37;;;26.10;99.90;;;;;;4817803;29;20472;-84
2023/08/20 01:33:22;;;;;;;27.57;24.97;;;26.10;99.90;;;;;;4818182;29;20787;-84
2023/08/20 01:35:47;;;;;;;25.67;23.17;;;26.10;99.90;;;;;;4816519;29;20967;-84
2023/08/20 01:38:13;;;;;;;27.23;23.13;;;26.00;99.90;;;;;;4816369;29;20597;-84
2023/08/20 01:40:39;;;;;;;26.47;23.87;;;26.00;99.90;;;;;;4816081;29;20627;-79
2023/08/20 01:43:04;;;;;;;27.87;25.07;;;26.00;99.90;;;;;;4831347;29;20288;-78
2023/08/20 01:45:30;;;;;;;28.20;25.50;;;26.00;99.90;;;;;;4816467;29;20206;-79
2023/08/20 01:47:56;;;;;;;26.10;23.70;;;26.00;99.90;;;;;;4831152;29;20225;-79
2023/08/20 01:50:21;;;;;;;26.10;23.80;;;26.00;99.90;;;;;;4817919;29;20664;-84
2023/08/20 01:52:47;;;;;;;27.80;25.27;;;25.90;99.90;;;;;;4817478;29;20556;-80
2023/08/20 01:55:13;;;;;;;27.27;24.77;;;25.90;99.90;;;;;;4816436;29;20249;-79
2023/08/20 01:57:39;;;;;;;26.40;24.07;;;25.90;99.90;;;;;;4831022;29;20284;-79
2023/08/20 02:00:06;;;;;;;25.90;23.50;;;25.90;99.90;;;;;;4817656;29;20437;-84
2023/08/20 02:02:32;;;;;;;28.63;25.90;;;25.90;99.90;;;;;;4830767;29;20221;-79
2023/08/20 02:04:58;;;;;;;27.90;25.10;;;25.90;99.90;;;;;;4815571;29;20449;-84
2023/08/20 02:07:24;;;;;;;26.53;24.13;;;25.90;99.90;;;;;;4816059;29;20618;-84
2023/08/20 02:09:49;;;;;;;27.57;25.07;;;25.90;99.90;;;;;;4830830;29;20210;-79
2023/08/20 02:12:15;;;;;;;28.00;25.33;;;25.80;99.90;;;;;;4831126;29;20451;-84
2023/08/20 02:14:41;;;;;;;27.50;24.67;;;25.80;99.90;;;;;;4816850;29;20206;-83
2023/08/20 02:17:08;;;;;;;28.90;26.00;;;25.80;99.90;;;;;;4817294;29;20706;-85
2023/08/20 02:19:33;;;;;;;26.20;23.60;;;25.80;99.90;;;;;;4830816;29;20190;-85
2023/08/20 02:21:59;;;;;;;27.43;24.90;;;25.80;99.90;;;;;;4830284;29;20722;-79
2023/08/20 02:24:25;;;;;;;26.43;23.90;;;25.80;99.90;;;;;;4830897;29;20193;-84
2023/08/20 02:26:50;;;;;;;26.13;23.73;;;25.80;99.90;;;;;;4830850;29;20193;-79
2023/08/20 02:29:16;;;;;;;29.70;27.00;;;25.80;99.90;;;;;;4817126;29;20422;-79
2023/08/20 02:31:42;;;;;;;27.77;25.00;;;25.80;99.90;;;;;;4816927;29;20242;-79
2023/08/20 02:34:07;;;;;;;28.23;25.60;;;25.80;99.90;;;;;;4830598;29;20190;-79
2023/08/20 02:36:33;;;;;;;26.40;23.90;;;25.80;99.90;;;;;;4830579;29;20315;-84
2023/08/20 02:38:59;;;;;;;25.90;23.50;;;25.70;99.90;;;;;;4830431;29;20613;-79
2023/08/20 02:41:24;;;;;;;26.50;24.10;;;25.70;99.90;;;;;;4830794;29;20571;-85
2023/08/20 02:43:50;;;;;;;26.07;23.77;;;25.70;99.90;;;;;;4816708;29;20208;-83
2023/08/20 02:46:15;;;;;;;27.00;24.50;;;25.70;99.90;;;;;;4815605;29;20356;-79
2023/08/20 02:48:41;;;;;;;26.67;24.23;;;25.70;99.90;;;;;;4817133;29;20186;-81
2023/08/20 02:51:07;;;;;;;27.77;24.80;;;25.70;99.90;;;;;;4816948;29;20610;-85
2023/08/20 02:53:33;;;;;;;24.73;22.53;;;25.70;99.90;;;;;;4816699;29;20242;-79
2023/08/20 02:55:58;;;;;;;27.27;24.77;;;25.60;99.90;;;;;;4816772;29;20225;-80
2023/08/20 02:58:24;;;;;;;29.27;25.47;;;25.60;99.90;;;;;;4830524;29;20228;-80
2023/08/20 03:00:50;;;;;;;26.37;23.97;;;25.60;99.90;;;;;;4816753;29;20205;-85
2023/08/20 03:03:15;;;;;;;28.70;25.73;;;25.60;99.90;;;;;;4817134;29;20568;-79
2023/08/20 03:05:42;;;;;;;27.03;24.27;;;25.60;99.90;;;;;;4816695;29;20236;-85
2023/08/20 03:08:08;;;;;;;28.43;25.67;;;25.50;99.90;;;;;;4815670;29;20399;-85
2023/08/20 03:10:34;;;;;;;27.30;24.67;;;25.50;99.90;;;;;;4816492;29;20837;-79
2023/08/20 03:13:01;;;;;;;27.70;24.90;;;25.50;99.90;;;;;;4829993;29;20432;-85
2023/08/20 03:15:27;;;;;;;26.70;24.30;;;25.50;99.90;;;;;;4830446;29;20817;-84
2023/08/20 03:17:53;;;;;;;27.67;25.03;;;25.50;99.90;;;;;;4815919;29;20480;-81
2023/08/20 03:20:19;;;;;;;26.93;24.23;;;25.50;99.90;;;;;;4815188;29;20437;-79
2023/08/20 03:22:44;;;;;;;26.80;24.30;;;25.50;99.90;;;;;;4814661;29;20673;-80
2023/08/20 03:25:10;;;;;;;27.67;24.97;;;25.50;99.90;;;;;;4830354;29;20244;-84
2023/08/20 03:27:36;;;;;;;28.33;25.60;;;25.40;99.90;;;;;;4816255;29;20182;-84
2023/08/20 03:30:02;;;;;;;28.30;25.40;;;25.40;99.90;;;;;;4816523;29;20758;-79
2023/08/20 03:32:28;;;;;;;27.30;24.40;;;25.40;99.90;;;;;;4830164;29;20205;-79
2023/08/20 03:34:55;;;;;;;26.67;24.17;;;25.40;99.90;;;;;;4817317;29;20453;-80
2023/08/20 03:37:21;;;;;;;28.60;25.80;;;25.40;99.90;;;;;;4819553;29;20214;-85
2023/08/20 03:39:47;;;;;;;28.27;25.47;;;25.40;99.90;;;;;;4819076;29;20473;-85
2023/08/20 03:42:13;;;;;;;29.50;26.80;;;25.30;99.90;;;;;;4819235;29;20542;-79
2023/08/20 03:44:38;;;;;;;27.30;24.77;;;25.30;99.90;;;;;;4819116;29;20214;-85
2023/08/20 03:47:04;;;;;;;26.80;24.43;;;25.30;99.90;;;;;;4819514;29;20614;-80
2023/08/20 03:49:30;;;;;;;26.70;24.10;;;25.30;99.90;;;;;;4833183;29;20224;-85
2023/08/20 03:51:56;;;;;;;29.40;26.70;;;25.30;99.90;;;;;;4819072;29;20182;-80
2023/08/20 03:54:21;;;;;;;27.53;24.83;;;25.30;99.90;;;;;;4832988;29;20241;-80
2023/08/20 03:56:47;;;;;;;28.93;26.20;;;25.30;99.90;;;;;;4819213;29;20225;-79
2023/08/20 03:59:13;;;;;;;28.13;25.60;;;25.20;99.90;;;;;;4833229;29;20193;-79
2023/08/20 04:01:39;;;;;;;27.60;25.10;;;25.20;99.90;;;;;;4817714;29;20676;-85
2023/08/20 04:04:04;;;;;;;27.13;24.47;;;25.20;99.90;;;;;;4819023;29;20453;-80
2023/08/20 04:06:30;;;;;;;29.03;26.27;;;25.30;99.90;;;;;;4817674;29;20198;-84
2023/08/20 04:08:56;;;;;;;28.10;25.30;;;25.30;99.90;;;;;;4818382;29;20192;-79
2023/08/20 04:11:22;;;;;;;26.90;24.30;;;25.20;99.90;;;;;;4832853;29;20735;-79
2023/08/20 04:13:47;;;;;;;28.17;25.57;;;25.30;99.90;;;;;;4832534;29;20289;-81
2023/08/20 04:16:13;;;;;;;26.77;24.33;;;25.20;99.90;;;;;;4832759;29;20290;-84
2023/08/20 04:18:39;;;;;;;28.80;25.90;;;25.20;99.90;;;;;;4832628;29;20182;-85
2023/08/20 04:21:05;;;;;;;28.90;26.20;;;25.20;99.90;;;;;;4818948;29;20418;-85
2023/08/20 04:23:31;;;;;;;28.93;26.23;;;25.20;99.90;;;;;;4832550;29;20545;-84
2023/08/20 04:25:56;;;;;;;28.20;25.60;;;25.20;99.90;;;;;;4818829;29;20209;-79
2023/08/20 04:28:22;;;;;;;28.13;23.77;;;25.30;99.90;;;;;;4817659;29;20203;-80
2023/08/20 04:30:49;;;;;;;27.33;24.80;;;25.30;99.90;;;;;;4832503;29;20319;-79
2023/08/20 04:33:14;;;;;;;28.40;25.60;;;25.20;99.90;;;;;;4832774;29;20190;-85
2023/08/20 04:35:40;;;;;;;27.77;25.27;;;25.30;99.90;;;;;;4832442;29;20795;-80
2023/08/20 04:38:06;;;;;;;27.60;25.00;;;25.30;99.90;;;;;;4817384;29;20205;-84
2023/08/20 04:40:31;;;;;;;27.43;24.63;;;25.30;99.90;;;;;;4818619;29;20206;-80
2023/08/20 04:42:57;;;;;;;27.30;24.80;;;25.30;99.90;;;;;;4832083;29;20186;-85
2023/08/20 04:45:23;;;;;;;26.73;24.20;;;25.30;99.90;;;;;;4818237;29;20301;-84
2023/08/20 04:47:48;;;;;;;25.70;23.33;;;25.30;99.90;;;;;;4818534;29;20186;-79
2023/08/20 04:50:14;;;;;;;27.10;24.60;;;25.30;99.90;;;;;;4817324;29;20237;-85
2023/08/20 04:52:40;;;;;;;26.97;24.47;;;25.30;99.90;;;;;;4818457;29;20741;-84
2023/08/20 04:55:07;;;;;;;27.40;24.83;;;25.30;99.90;;;;;;4818281;29;20421;-83
2023/08/20 04:57:33;;;;;;;28.93;25.97;;;25.30;99.90;;;;;;4832093;29;20481;-80
2023/08/20 04:59:59;;;;;;;27.13;24.47;;;25.40;99.90;;;;;;4818633;29;20440;-79
2023/08/20 05:02:25;;;;;;;26.73;24.23;;;25.40;99.90;;;;;;4818244;29;20336;-85
2023/08/20 05:04:51;;;;;;;25.77;23.27;;;25.40;99.90;;;;;;4818357;29;20796;-80
2023/08/20 05:07:17;;;;;;;28.17;25.67;;;25.50;99.90;;;;;;4817034;29;20999;-80
2023/08/20 05:09:42;;;;;;;27.03;24.33;;;25.50;99.90;;;;;;4816524;29;20485;-80
2023/08/20 05:12:08;;;;;;;27.03;24.73;;;25.50;99.90;;;;;;4817397;29;20217;-83
2023/08/20 05:14:34;;;;;;;25.73;23.33;;;25.50;99.90;;;;;;4816450;29;20893;-84
2023/08/20 05:16:59;;;;;;;27.50;24.93;;;25.50;99.90;;;;;;4831490;29;20656;-84
2023/08/20 05:19:25;;;;;;;24.33;22.13;;;25.60;99.90;;;;;;4816504;29;20228;-79
2023/08/20 05:21:55;;;;;;;25.33;23.00;;;25.60;99.90;;;;;;4816677;29;20524;-79
2023/08/20 05:24:21;;;;;;;26.80;24.10;;;25.70;99.90;;;;;;4818058;29;20429;-84
2023/08/20 05:26:49;;;;;;;24.27;22.10;;;25.70;99.90;;;;;;4816562;29;21118;-85
2023/08/20 05:29:15;;;;;;;24.83;22.43;;;25.80;99.90;;;;;;4831716;29;20932;-84
2023/08/20 05:31:40;;;;;;;24.07;21.77;;;25.80;99.90;;;;;;4831566;29;20457;-84
2023/08/20 05:34:06;;;;;;;24.60;22.40;;;25.80;99.90;;;;;;4831477;29;20615;-84
2023/08/20 05:36:31;;;;;;;23.47;21.40;;;25.90;99.90;;;;;;4816253;29;20698;-80
2023/08/20 05:38:57;;;;;;;23.00;20.70;;;25.90;99.90;;;;;;4831622;29;20326;-80
2023/08/20 05:41:23;;;;;;;24.13;21.87;;;26.00;99.90;;;;;;4817865;29;20202;-79
2023/08/20 05:43:48;;;;;;;24.00;21.47;;;26.00;99.90;;;;;;4817200;29;20555;-79
2023/08/20 05:46:14;;;;;;;23.70;21.50;;;26.10;99.90;;;;;;4831414;29;20599;-85
2023/08/20 05:48:39;;;;;;;23.47;21.10;;;26.10;99.90;;;;;;4817569;29;20636;-79
2023/08/20 05:51:05;;;;;;;25.07;22.43;;;26.20;99.90;;;;;;4817812;29;20210;-84
2023/08/20 05:53:31;;;;;;;23.27;21.03;;;26.20;99.90;;;;;;4817693;29;20232;-84
2023/08/20 05:55:56;;;;;;;21.73;19.80;;;26.30;99.90;;;;;;4830465;29;20213;-84
2023/08/20 05:58:22;;;;;;;21.73;19.73;;;26.30;99.90;;;;;;4817387;29;20411;-85
2023/08/20 06:00:48;;;;;;;22.13;20.03;;;26.40;99.90;;;;;;4817278;29;20206;-84
2023/08/20 06:03:14;;;;;;;21.93;19.93;;;26.40;99.90;;;;;;4817835;29;20261;-82
2023/08/20 06:05:40;;;;;;;22.83;20.73;;;26.50;99.90;;;;;;4815606;29;20446;-84
2023/08/20 06:08:06;;;;;;;21.67;19.87;;;26.60;99.90;;;;;;4817389;29;20437;-79
2023/08/20 06:10:31;;;;;;;20.67;18.93;;;26.60;99.90;;;;;;4816025;29;20220;-84
2023/08/20 06:12:57;;;;;;;23.50;21.33;;;26.70;99.90;;;;;;4816241;29;20193;-80
2023/08/20 06:15:23;;;;;;;20.20;18.50;;;26.80;99.90;;;;;;4830914;29;20358;-80
2023/08/20 06:17:48;;;;;;;20.67;18.77;;;26.80;99.90;;;;;;4816953;29;20221;-79
2023/08/20 06:20:14;;;;;;;22.07;19.97;;;26.90;99.90;;;;;;4815946;29;20631;-84
2023/08/20 06:22:40;;;;;;;20.37;18.57;;;27.00;99.90;;;;;;4817254;29;20536;-80
2023/08/20 06:25:06;;;;;;;19.60;17.70;;;27.00;99.90;;;;;;4830808;29;20218;-84
2023/08/20 06:27:32;;;;;;;19.20;17.33;;;27.10;99.90;;;;;;4817149;29;20217;-79
2023/08/20 06:29:57;;;;;;;21.57;19.40;;;27.20;99.90;;;;;;4815428;29;20576;-79
2023/08/20 06:32:24;;;;;;;17.50;16.00;;;27.20;99.90;;;;;;4830918;29;20193;-80
2023/08/20 06:34:50;;;;;;;19.30;17.60;;;27.30;99.90;;;;;;4830642;29;20341;-80
2023/08/20 06:37:15;;;;;;;16.67;15.27;;;27.40;99.90;;;;;;4831139;29;20513;-80
2023/08/20 06:39:41;;;;;;;17.47;15.90;;;27.40;99.90;;;;;;4815633;29;20592;-80
2023/08/20 06:42:07;;;;;;;19.00;17.17;;;27.50;99.90;;;;;;4830120;29;20235;-85
2023/08/20 06:44:35;;;;;;;16.80;15.30;;;27.50;99.90;;;;;;4816782;29;20185;-80
2023/08/20 06:47:00;;;;;;;17.30;15.70;;;27.60;99.90;;;;;;4830488;29;20439;-85
2023/08/20 06:49:26;;;;;;;20.17;16.17;;;27.60;99.90;;;;;;4816732;29;20429;-82
2023/08/20 06:51:52;;;;;;;16.47;14.87;;;27.70;99.90;;;;;;4830676;29;20189;-80
2023/08/20 06:54:17;;;;;;;17.47;15.73;;;27.80;99.90;;;;;;4815081;29;20515;-79
2023/08/20 06:56:43;;;;;;;16.40;14.87;;;27.80;99.90;;;;;;4816883;29;20227;-82
2023/08/20 06:59:10;;;;;;;16.43;14.83;;;27.90;99.90;;;;;;4817025;29;20237;-84
2023/08/20 07:01:36;;;;;;;16.07;14.67;;;27.90;99.90;;;;;;4830264;29;20787;-80
2023/08/20 07:04:01;;;;;;;16.30;14.70;;;28.00;99.90;;;;;;4816382;29;20559;-83
2023/08/20 07:06:27;;;;;;;15.67;14.27;;;28.10;99.90;;;;;;4816642;29;20196;-85
2023/08/20 07:08:53;;;;;;;16.07;14.47;;;28.10;99.90;;;;;;4819184;29;20271;-80
2023/08/20 07:11:18;;;;;;;15.83;14.27;;;28.20;99.90;;;;;;4820072;29;20436;-80
2023/08/20 07:13:44;;;;;;;18.70;13.87;;;28.30;99.90;;;;;;4819787;29;20187;-79
2023/08/20 07:16:10;;;;;;;15.10;13.70;;;28.30;99.90;;;;;;4832725;29;20212;-80
2023/08/20 07:18:35;;;;;;;14.00;12.67;;;28.40;99.90;;;;;;4833578;29;20700;-82
2023/08/20 07:21:02;;;;;;;15.30;14.10;;;28.50;99.90;;;;;;4820073;29;20282;-85
2023/08/20 07:23:28;;;;;;;14.87;13.70;;;28.50;99.90;;;;;;4820330;29;20306;-80
2023/08/20 07:26:08;;;;;;;14.87;13.67;;;28.60;99.90;;;;;;4818707;29;20448;-79
2023/08/20 07:31:19;;;;;;;14.77;13.43;;;28.70;99.90;;;;;;4819327;29;20538;-85
2023/08/20 07:33:48;;;;;;;14.30;13.10;;;28.80;99.90;;;;;;4819131;29;20522;-80
2023/08/20 07:36:14;;;;;;;14.30;13.10;;;28.80;99.90;;;;;;4817587;29;20257;-85
2023/08/20 07:38:42;;;;;;;14.57;13.47;;;28.80;99.90;;;;;;4818755;29;20637;-81
2023/08/20 07:41:08;;;;;;;14.03;12.90;;;28.90;99.90;;;;;;4817726;29;20835;-80
2023/08/20 07:43:34;;;;;;;13.63;12.47;;;29.00;99.90;;;;;;4816589;29;20495;-85
2023/08/20 07:46:00;;;;;;;14.40;13.30;;;29.10;99.90;;;;;;4817036;29;20493;-79
2023/08/20 07:48:25;;;;;;;13.33;12.23;;;29.10;99.90;;;;;;4817824;29;20193;-80
2023/08/20 07:50:51;;;;;;;13.57;12.53;;;29.20;99.90;;;;;;4819346;29;20205;-85
2023/08/20 07:53:17;;;;;;;13.37;12.37;;;29.20;99.90;;;;;;4819121;29;20190;-85
2023/08/20 07:55:42;;;;;;;13.23;12.03;;;29.30;99.90;;;;;;4816731;29;20223;-85
2023/08/20 07:58:08;;;;;;;13.47;12.30;;;29.30;99.90;;;;;;4817870;29;20229;-85
2023/08/20 08:00:34;;;;;;;13.77;12.50;;;29.40;99.90;;;;;;4818100;29;20736;-80
2023/08/20 08:02:59;;;;;;;14.17;12.93;;;29.50;99.90;;;;;;4816326;29;20672;-80
2023/08/20 08:05:25;;;;;;;11.73;10.63;;;29.50;99.90;;;;;;4816577;29;20519;-80
2023/08/20 08:07:51;;;;;;;12.10;11.10;;;29.50;99.90;;;;;;4817563;29;20361;-80
2023/08/20 08:10:16;;;;;;;12.70;11.70;;;29.60;99.90;;;;;;4817426;29;20205;-79
2023/08/20 08:12:42;;;;;;;12.27;11.30;;;29.70;99.90;;;;;;4818794;29;20193;-85
2023/08/20 08:15:08;;;;;;;13.20;12.10;;;29.80;99.90;;;;;;4819250;29;20215;-80
2023/08/20 08:17:33;;;;;;;14.23;12.93;;;29.80;99.90;;;;;;4816419;29;20226;-85
2023/08/20 08:19:59;;;;;;;12.20;11.20;;;29.90;99.90;;;;;;4816601;29;20256;-80
2023/08/20 08:22:25;;;;;;;13.43;12.27;;;30.00;99.90;;;;;;4817510;29;20202;-85
2023/08/20 08:24:50;;;;;;;11.83;10.93;;;30.10;99.90;;;;;;4817394;29;20224;-79
2023/08/20 08:27:16;;;;;;;12.60;11.70;;;30.20;99.90;;;;;;4817532;29;20202;-80
2023/08/20 08:29:42;;;;;;;14.30;13.00;;;30.20;99.90;;;;;;4818800;29;20204;-80
2023/08/20 08:32:07;;;;;;;13.47;12.37;;;30.30;99.90;;;;;;4818893;29;20683;-85
2023/08/20 08:34:33;;;;;;;14.30;12.80;;;30.40;99.90;;;;;;4818742;29;20238;-80
2023/08/20 08:36:58;;;;;;;14.53;13.13;;;30.40;99.90;;;;;;4817655;29;20712;-85
2023/08/20 08:39:24;;;;;;;13.77;12.63;;;30.40;99.90;;;;;;4817394;29;20192;-85
2023/08/20 08:41:53;;;;;;;14.27;13.07;;;30.50;99.90;;;;;;4818862;29;20207;-80
2023/08/20 08:44:21;;;;;;;14.60;13.30;;;30.50;99.90;;;;;;4816992;29;20295;-86
2023/08/20 08:46:50;;;;;;;14.60;13.50;;;30.60;99.90;;;;;;4818370;29;20463;-85
2023/08/20 08:49:16;;;;;;;13.77;12.57;;;30.60;99.90;;;;;;4817156;29;20447;-85
2023/08/20 08:51:44;;;;;;;14.00;12.77;;;30.70;99.90;;;;;;4817218;29;20464;-80
2023/08/20 08:54:10;;;;;;;13.70;12.50;;;30.70;99.90;;;;;;4817039;29;20533;-85
2023/08/20 08:56:36;;;;;;;13.10;11.90;;;30.80;99.90;;;;;;4816859;29;20520;-80
2023/08/20 08:59:03;;;;;;;13.63;12.47;;;30.90;99.90;;;;;;4817206;29;20821;-80
2023/08/20 09:01:28;;;;;;;13.27;12.10;;;31.00;99.90;;;;;;4817139;29;20565;-79
2023/08/20 09:03:54;;;;;;;13.23;12.13;;;31.20;99.90;;;;;;4816756;29;20422;-83
2023/08/20 09:06:20;;;;;;;13.27;11.90;;;31.30;99.90;;;;;;4818448;29;20573;-85
2023/08/20 09:08:45;;;;;;;14.10;12.80;;;31.40;99.90;;;;;;4818261;29;20196;-80
2023/08/20 09:11:11;;;;;;;15.07;12.50;;;31.50;99.90;;;;;;4816685;29;20256;-85
2023/08/20 09:13:39;;;;;;;13.57;12.37;;;31.60;99.90;;;;;;4817916;29;20193;-80
2023/08/20 09:16:06;;;;;;;12.07;10.80;;;31.70;99.90;;;;;;4816716;29;20893;-85
2023/08/20 09:18:44;;;;;;;12.97;11.67;;;31.80;99.90;;;;;;4815842;29;21008;-86
2023/08/20 09:21:12;;;;;;;12.47;11.50;;;31.70;99.90;;;;;;4816374;29;20456;-86
2023/08/20 09:23:38;;;;;;;12.30;11.30;;;31.70;99.90;;;;;;4817873;29;20570;-85
2023/08/20 09:26:06;;;;;;;11.53;10.63;;;31.70;99.90;;;;;;4817896;29;20816;-85
2023/08/20 09:28:47;;;;;;;11.97;10.83;;;31.70;99.90;;;;;;4817835;29;21080;-80
2023/08/20 09:31:13;;;;;;;12.10;11.20;;;31.80;99.90;;;;;;4816550;29;20464;-80
2023/08/20 09:33:49;;;;;;;12.80;11.67;;;31.70;99.90;;;;;;4816315;29;20648;-80
2023/08/20 09:36:15;;;;;;;10.80;10.00;;;31.70;99.90;;;;;;4816270;29;20798;-85
2023/08/20 09:38:41;;;;;;;11.67;10.77;;;31.70;99.90;;;;;;4816272;29;20436;-81
2023/08/20 09:41:08;;;;;;;12.70;11.53;;;31.80;99.90;;;;;;4816634;29;20350;-85
2023/08/20 09:43:38;;;;;;;12.73;11.73;;;31.80;99.90;;;;;;4816109;29;20249;-86
2023/08/20 09:46:05;;;;;;;11.33;10.33;;;31.80;99.90;;;;;;4816174;29;20579;-85
2023/08/20 09:48:37;;;;;;;11.73;10.83;;;31.70;99.90;;;;;;4817825;29;20425;-84
2023/08/20 09:51:11;;;;;;;11.27;10.47;;;31.80;99.90;;;;;;4817720;29;20806;-84
2023/08/20 09:53:55;;;;;;;10.90;9.77;;;31.80;99.90;;;;;;4817385;29;20488;-80
2023/08/20 09:56:30;;;;;;;11.37;10.47;;;31.90;99.90;;;;;;4817460;29;20481;-85
2023/08/20 09:59:00;;;;;;;10.97;9.97;;;31.80;99.90;;;;;;4816190;29;20623;-80
2023/08/20 10:01:27;;;;;;;11.50;10.40;;;31.80;99.90;;;;;;4816192;29;20442;-85
2023/08/20 10:03:53;;;;;;;12.20;11.20;;;31.80;99.90;;;;;;4817239;29;20414;-85
2023/08/20 10:06:20;;;;;;;11.67;10.70;;;31.80;99.90;;;;;;4816212;29;20477;-80
2023/08/20 10:08:46;;;;;;;11.50;10.47;;;31.90;99.90;;;;;;4814196;29;21066;-85
2023/08/20 10:11:12;;;;;;;12.20;11.20;;;31.90;99.90;;;;;;4816343;29;21148;-80
2023/08/20 10:13:38;;;;;;;11.67;10.77;;;31.90;99.90;;;;;;4814169;29;20426;-85
2023/08/20 10:16:04;;;;;;;11.13;10.40;;;31.90;99.90;;;;;;4814203;29;20440;-80
2023/08/20 10:18:30;;;;;;;12.07;11.07;;;31.90;99.90;;;;;;4815543;29;20592;-84
2023/08/20 10:21:00;;;;;;;11.20;9.90;;;32.00;99.90;;;;;;4814571;29;20826;-84
2023/08/20 10:23:26;;;;;;;10.83;9.97;;;32.10;99.90;;;;;;4815795;29;20461;-80
2023/08/20 10:25:52;;;;;;;10.50;9.70;;;32.10;99.90;;;;;;4814340;29;20468;-80
2023/08/20 10:28:29;;;;;;;11.20;10.20;;;32.10;99.90;;;;;;4815163;29;20613;-85
2023/08/20 10:31:16;;;;;;;11.30;10.20;;;32.10;99.90;;;;;;4816852;29;20441;-80
2023/08/20 10:33:47;;;;;;;10.63;9.73;;;32.20;99.90;;;;;;4817037;29;20888;-80
2023/08/20 10:36:15;;;;;;;15.67;10.20;;;32.10;99.90;;;;;;4816932;29;20472;-85
2023/08/20 10:38:41;;;;;;;10.93;9.93;;;32.20;99.90;;;;;;4817037;29;20422;-81
2023/08/20 10:41:08;;;;;;;10.80;9.87;;;32.20;99.90;;;;;;4815609;29;20455;-80
2023/08/20 10:43:37;;;;;;;11.30;10.30;;;32.20;99.90;;;;;;4819444;29;20212;-81
2023/08/20 10:46:24;;;;;;;11.63;10.53;;;32.30;99.90;;;;;;4822929;29;20441;-80
2023/08/20 10:48:55;;;;;;;10.93;10.03;;;32.30;99.90;;;;;;4822877;29;20448;-85
2023/08/20 10:51:33;;;;;;;11.70;10.80;;;32.30;99.90;;;;;;4821405;29;20458;-80
2023/08/20 10:54:04;;;;;;;11.70;10.53;;;32.40;99.90;;;;;;4822524;29;20522;-85
2023/08/20 10:56:39;;;;;;;11.00;10.10;;;32.30;99.90;;;;;;4822728;29;20497;-80
2023/08/20 10:59:08;;;;;;;11.50;10.30;;;32.30;99.90;;;;;;4821585;29;20425;-80
2023/08/20 11:01:34;;;;;;;9.97;9.07;;;32.30;99.90;;;;;;4821005;29;20700;-84
2023/08/20 11:04:04;;;;;;;11.07;10.07;;;32.30;99.90;;;;;;4821324;29;20975;-84
2023/08/20 11:06:33;;;;;;;11.47;10.63;;;32.30;99.90;;;;;;4821426;29;20469;-84
2023/08/20 11:09:03;;;;;;;10.87;10.07;;;32.40;99.90;;;;;;4822438;29;20425;-85
2023/08/20 11:11:29;;;;;;;12.23;10.40;;;32.40;99.90;;;;;;4822821;29;20456;-85
2023/08/20 11:13:54;;;;;;;11.30;10.37;;;32.40;99.90;;;;;;4822245;29;20927;-85
2023/08/20 11:16:20;;;;;;;14.20;10.47;;;32.40;99.90;;;;;;4822783;29;20210;-85
2023/08/20 11:18:46;;;;;;;11.47;10.57;;;32.50;99.90;;;;;;4821059;29;20292;-81
2023/08/20 11:21:13;;;;;;;12.00;10.83;;;32.50;99.90;;;;;;4820330;29;20675;-85
2023/08/20 11:23:41;;;;;;;10.90;9.90;;;32.50;99.90;;;;;;4821012;29;20429;-85
2023/08/20 11:26:07;;;;;;;12.17;11.07;;;32.60;99.90;;;;;;4822730;29;20488;-80
2023/08/20 11:28:33;;;;;;;11.00;10.10;;;32.60;99.90;;;;;;4822289;29;20453;-85
2023/08/20 11:31:01;;;;;;;11.97;10.97;;;32.60;99.90;;;;;;4821137;29;20492;-85
2023/08/20 11:33:27;;;;;;;11.57;10.57;;;32.50;99.90;;;;;;4822569;29;20205;-81
2023/08/20 11:35:53;;;;;;;12.80;11.10;;;32.60;99.90;;;;;;4820905;29;20441;-85
2023/08/20 11:38:24;;;;;;;11.83;10.73;;;32.60;99.90;;;;;;4822735;29;20436;-81
2023/08/20 11:40:50;;;;;;;12.30;11.23;;;32.60;99.90;;;;;;4820941;29;20457;-80
2023/08/20 11:43:16;;;;;;;12.53;11.00;;;32.50;99.90;;;;;;4822566;29;20432;-85
2023/08/20 11:45:46;;;;;;;12.13;11.23;;;32.50;99.90;;;;;;4820850;29;20202;-85
2023/08/20 11:48:13;;;;;;;11.63;10.50;;;32.60;99.90;;;;;;4822439;29;20425;-85
2023/08/20 11:50:40;;;;;;;11.47;10.67;;;32.70;99.90;;;;;;4822490;29;20447;-81
2023/08/20 11:53:06;;;;;;;11.60;10.70;;;32.60;99.90;;;;;;4820860;29;21038;-80
2023/08/20 11:55:32;;;;;;;10.80;9.90;;;32.60;99.90;;;;;;4817026;29;20528;-85
2023/08/20 11:57:57;;;;;;;11.90;10.80;;;32.60;99.90;;;;;;4817592;29;20481;-81
2023/08/20 12:00:28;;;;;;;11.77;10.70;;;32.70;99.90;;;;;;4817803;29;20238;-80
2023/08/20 12:02:55;;;;;;;11.67;10.73;;;32.70;99.90;;;;;;4819423;29;20507;-82
2023/08/20 12:05:28;;;;;;;12.40;11.40;;;32.70;99.90;;;;;;4818170;29;20991;-80
2023/08/20 12:07:59;;;;;;;11.40;10.50;;;32.80;99.90;;;;;;4817619;29;20437;-85
2023/08/20 12:10:26;;;;;;;12.23;10.83;;;32.90;99.90;;;;;;4817978;29;20807;-85
2023/08/20 12:12:52;;;;;;;12.00;10.90;;;32.80;99.90;;;;;;4817476;29;20848;-81
2023/08/20 12:15:19;;;;;;;12.50;11.30;;;32.80;99.90;;;;;;4817818;29;20445;-84
2023/08/20 12:17:59;;;;;;;12.53;11.47;;;32.80;99.90;;;;;;4818727;29;20481;-80
2023/08/20 12:20:28;;;;;;;11.87;10.97;;;32.80;99.90;;;;;;4816740;29;20826;-85
2023/08/20 12:22:53;;;;;;;11.30;10.40;;;32.80;99.90;;;;;;4818834;29;20422;-85
2023/08/20 12:25:19;;;;;;;11.17;10.37;;;32.90;99.90;;;;;;4818986;29;20589;-85
2023/08/20 12:27:45;;;;;;;12.23;11.27;;;32.80;99.90;;;;;;4818854;29;20190;-81
2023/08/20 12:30:11;;;;;;;12.37;11.20;;;32.90;99.90;;;;;;4818860;29;20202;-85